sensor_id;sensor_type;location;lat;lon;timestamp;pressure;altitude;pressure_sealevel;temperature;humidity
72857;BME280;62742;52.136;4.500;2023-04-01T00:02:11;99134.56;;;8.95;100.00
72857;BME280;62742;52.136;4.500;2023-04-01T00:04:38;99130.84;;;9.01;100.00
72857;BME280;62742;52.136;4.500;2023-04-01T00:07:04;99135.41;;;8.96;100.00
72857;BME280;62742;52.136;4.500;2023-04-01T00:09:30;99138.19;;;8.91;100.00
72857;BME280;62742;52.136;4.500;2023-04-01T00:11:56;99138.66;;;9.03;100.00
72857;BME280;62742;52.136;4.500;2023-04-01T00:14:22;99139.13;;;8.90;100.00
72857;BME280;62742;52.136;4.500;2023-04-01T00:16:48;99141.69;;;8.92;100.00
72857;BME280;62742;52.136;4.500;2023-04-01T00:19:15;99142.94;;;8.82;100.00
72857;BME280;62742;52.136;4.500;2023-04-01T00:21:41;99153.91;;;8.68;100.00
72857;BME280;62742;52.136;4.500;2023-04-01T00:24:07;99149.28;;;8.74;100.00
72857;BME280;62742;52.136;4.500;2023-04-01T00:26:33;99154.66;;;8.71;100.00
72857;BME280;62742;52.136;4.500;2023-04-01T00:29:00;99152.03;;;8.71;100.00
72857;BME280;62742;52.136;4.500;2023-04-01T00:31:26;99154.06;;;8.63;100.00
72857;BME280;62742;52.136;4.500;2023-04-01T00:33:52;99157.25;;;8.71;100.00
72857;BME280;62742;52.136;4.500;2023-04-01T00:36:20;99161.56;;;8.72;100.00
72857;BME280;62742;52.136;4.500;2023-04-01T00:38:49;99162.66;;;8.67;100.00
72857;BME280;62742;52.136;4.500;2023-04-01T00:41:16;99161.16;;;8.59;100.00
72857;BME280;62742;52.136;4.500;2023-04-01T00:43:45;99166.13;;;8.67;100.00
72857;BME280;62742;52.136;4.500;2023-04-01T00:46:13;99164.72;;;8.57;100.00
72857;BME280;62742;52.136;4.500;2023-04-01T00:48:42;99165.66;;;8.56;100.00
72857;BME280;62742;52.136;4.500;2023-04-01T00:51:16;99176.00;;;8.59;100.00
72857;BME280;62742;52.136;4.500;2023-04-01T00:53:47;99169.75;;;8.63;100.00
72857;BME280;62742;52.136;4.500;2023-04-01T00:56:16;99178.41;;;8.65;100.00
72857;BME280;62742;52.136;4.500;2023-04-01T00:58:49;99178.94;;;8.75;100.00
72857;BME280;62742;52.136;4.500;2023-04-01T01:01:20;99182.22;;;8.82;100.00
72857;BME280;62742;52.136;4.500;2023-04-01T01:03:49;99181.13;;;8.62;100.00
72857;BME280;62742;52.136;4.500;2023-04-01T01:09:10;99186.06;;;8.71;100.00
72857;BME280;62742;52.136;4.500;2023-04-01T01:11:44;99201.13;;;8.65;100.00
72857;BME280;62742;52.136;4.500;2023-04-01T01:14:24;99189.03;;;8.60;100.00
72857;BME280;62742;52.136;4.500;2023-04-01T01:19:50;99195.31;;;8.56;100.00
72857;BME280;62742;52.136;4.500;2023-04-01T01:34:43;99209.63;;;8.71;100.00
72857;BME280;62742;52.136;4.500;2023-04-01T01:37:15;99215.91;;;8.66;100.00
72857;BME280;62742;52.136;4.500;2023-04-01T01:39:44;99216.88;;;8.63;100.00
72857;BME280;62742;52.136;4.500;2023-04-01T01:42:15;99217.53;;;8.70;100.00
72857;BME280;62742;52.136;4.500;2023-04-01T01:44:45;99221.97;;;8.68;100.00
72857;BME280;62742;52.136;4.500;2023-04-01T01:47:14;99229.22;;;8.59;100.00
72857;BME280;62742;52.136;4.500;2023-04-01T01:49:42;99224.00;;;8.59;100.00
72857;BME280;62742;52.136;4.500;2023-04-01T01:52:11;99229.38;;;8.55;100.00
72857;BME280;62742;52.136;4.500;2023-04-01T01:54:48;99232.56;;;8.65;100.00
72857;BME280;62742;52.136;4.500;2023-04-01T01:57:16;99235.88;;;8.70;100.00
72857;BME280;62742;52.136;4.500;2023-04-01T01:59:44;99229.97;;;8.63;100.00
72857;BME280;62742;52.136;4.500;2023-04-01T02:02:14;99239.44;;;8.67;100.00
72857;BME280;62742;52.136;4.500;2023-04-01T02:04:43;99235.69;;;8.74;100.00
72857;BME280;62742;52.136;4.500;2023-04-01T02:07:13;99245.31;;;8.74;100.00
72857;BME280;62742;52.136;4.500;2023-04-01T02:09:46;99248.09;;;8.69;100.00
72857;BME280;62742;52.136;4.500;2023-04-01T02:12:14;99249.47;;;8.79;100.00
72857;BME280;62742;52.136;4.500;2023-04-01T02:14:43;99260.19;;;8.73;100.00
72857;BME280;62742;52.136;4.500;2023-04-01T02:17:20;99258.88;;;8.87;100.00
72857;BME280;62742;52.136;4.500;2023-04-01T02:19:57;99266.72;;;8.87;100.00
72857;BME280;62742;52.136;4.500;2023-04-01T02:22:34;99270.72;;;8.97;100.00
72857;BME280;62742;52.136;4.500;2023-04-01T02:25:06;99273.22;;;9.00;100.00
72857;BME280;62742;52.136;4.500;2023-04-01T02:27:34;99278.22;;;9.08;100.00
72857;BME280;62742;52.136;4.500;2023-04-01T02:30:01;99275.84;;;9.00;100.00
72857;BME280;62742;52.136;4.500;2023-04-01T02:32:28;99289.88;;;8.99;100.00
72857;BME280;62742;52.136;4.500;2023-04-01T02:34:56;99286.41;;;8.98;100.00
72857;BME280;62742;52.136;4.500;2023-04-01T02:37:24;99284.81;;;8.93;100.00
72857;BME280;62742;52.136;4.500;2023-04-01T02:39:51;99290.75;;;8.98;100.00
72857;BME280;62742;52.136;4.500;2023-04-01T02:42:17;99284.63;;;8.99;100.00
72857;BME280;62742;52.136;4.500;2023-04-01T02:44:43;99289.50;;;9.10;100.00
72857;BME280;62742;52.136;4.500;2023-04-01T02:47:10;99295.41;;;8.90;100.00
72857;BME280;62742;52.136;4.500;2023-04-01T02:49:36;99305.63;;;8.97;100.00
72857;BME280;62742;52.136;4.500;2023-04-01T02:52:02;99303.72;;;9.03;100.00
72857;BME280;62742;52.136;4.500;2023-04-01T02:54:28;99310.78;;;9.01;100.00
72857;BME280;62742;52.136;4.500;2023-04-01T02:56:55;99309.69;;;9.06;100.00
72857;BME280;62742;52.136;4.500;2023-04-01T02:59:21;99309.81;;;9.03;100.00
72857;BME280;62742;52.136;4.500;2023-04-01T03:01:47;99320.94;;;9.10;100.00
72857;BME280;62742;52.136;4.500;2023-04-01T03:04:13;99319.25;;;9.09;100.00
72857;BME280;62742;52.136;4.500;2023-04-01T03:06:40;99327.78;;;9.14;100.00
72857;BME280;62742;52.136;4.500;2023-04-01T03:09:06;99334.19;;;9.05;100.00
72857;BME280;62742;52.136;4.500;2023-04-01T03:11:32;99332.84;;;9.18;100.00
72857;BME280;62742;52.136;4.500;2023-04-01T03:14:02;99339.50;;;9.29;100.00
72857;BME280;62742;52.136;4.500;2023-04-01T03:16:28;99338.50;;;9.33;100.00
72857;BME280;62742;52.136;4.500;2023-04-01T03:18:54;99351.00;;;9.25;100.00
72857;BME280;62742;52.136;4.500;2023-04-01T03:21:22;99346.78;;;9.21;100.00
72857;BME280;62742;52.136;4.500;2023-04-01T03:23:50;99355.59;;;9.18;100.00
72857;BME280;62742;52.136;4.500;2023-04-01T03:26:16;99370.19;;;9.25;100.00
72857;BME280;62742;52.136;4.500;2023-04-01T03:28:43;99373.78;;;9.23;100.00
72857;BME280;62742;52.136;4.500;2023-04-01T03:31:10;99363.41;;;9.20;100.00
72857;BME280;62742;52.136;4.500;2023-04-01T03:33:36;99372.41;;;9.12;100.00
72857;BME280;62742;52.136;4.500;2023-04-01T03:36:03;99382.41;;;9.26;100.00
72857;BME280;62742;52.136;4.500;2023-04-01T03:38:35;99384.56;;;9.13;100.00
72857;BME280;62742;52.136;4.500;2023-04-01T03:41:03;99389.75;;;9.15;100.00
72857;BME280;62742;52.136;4.500;2023-04-01T03:43:29;99387.84;;;9.20;100.00
72857;BME280;62742;52.136;4.500;2023-04-01T03:45:55;99394.84;;;9.20;100.00
72857;BME280;62742;52.136;4.500;2023-04-01T03:48:23;99398.13;;;9.26;100.00
72857;BME280;62742;52.136;4.500;2023-04-01T03:50:52;99409.41;;;9.28;100.00
72857;BME280;62742;52.136;4.500;2023-04-01T03:53:18;99412.41;;;9.17;100.00
72857;BME280;62742;52.136;4.500;2023-04-01T03:55:45;99411.44;;;9.20;100.00
72857;BME280;62742;52.136;4.500;2023-04-01T03:58:12;99422.28;;;9.09;100.00
72857;BME280;62742;52.136;4.500;2023-04-01T04:00:38;99423.03;;;9.13;100.00
72857;BME280;62742;52.136;4.500;2023-04-01T04:03:05;99426.06;;;9.01;100.00
72857;BME280;62742;52.136;4.500;2023-04-01T04:05:32;99437.91;;;9.12;100.00
72857;BME280;62742;52.136;4.500;2023-04-01T04:07:58;99438.59;;;9.17;100.00
72857;BME280;62742;52.136;4.500;2023-04-01T04:10:25;99442.63;;;9.01;100.00
72857;BME280;62742;52.136;4.500;2023-04-01T04:12:51;99445.00;;;9.09;100.00
72857;BME280;62742;52.136;4.500;2023-04-01T04:15:18;99450.34;;;9.06;100.00
72857;BME280;62742;52.136;4.500;2023-04-01T04:17:45;99451.38;;;9.00;100.00
72857;BME280;62742;52.136;4.500;2023-04-01T04:20:11;99461.75;;;9.03;100.00
72857;BME280;62742;52.136;4.500;2023-04-01T04:22:38;99467.44;;;9.17;100.00
72857;BME280;62742;52.136;4.500;2023-04-01T04:25:04;99467.22;;;8.97;100.00
72857;BME280;62742;52.136;4.500;2023-04-01T04:27:31;99471.47;;;8.99;100.00
72857;BME280;62742;52.136;4.500;2023-04-01T04:29:57;99479.38;;;8.98;100.00
72857;BME280;62742;52.136;4.500;2023-04-01T04:32:23;99483.03;;;8.94;100.00
72857;BME280;62742;52.136;4.500;2023-04-01T04:34:50;99487.28;;;8.96;100.00
72857;BME280;62742;52.136;4.500;2023-04-01T04:37:16;99489.03;;;8.97;100.00
72857;BME280;62742;52.136;4.500;2023-04-01T04:39:42;99490.16;;;8.89;100.00
72857;BME280;62742;52.136;4.500;2023-04-01T04:42:08;99491.16;;;8.85;100.00
72857;BME280;62742;52.136;4.500;2023-04-01T04:44:35;99504.06;;;8.91;100.00
72857;BME280;62742;52.136;4.500;2023-04-01T04:47:01;99500.44;;;8.95;100.00
72857;BME280;62742;52.136;4.500;2023-04-01T04:49:27;99505.88;;;8.89;100.00
72857;BME280;62742;52.136;4.500;2023-04-01T04:51:53;99518.66;;;8.99;100.00
72857;BME280;62742;52.136;4.500;2023-04-01T04:54:20;99513.28;;;9.04;100.00
72857;BME280;62742;52.136;4.500;2023-04-01T04:56:46;99525.41;;;9.07;100.00
72857;BME280;62742;52.136;4.500;2023-04-01T04:59:12;99529.06;;;9.01;100.00
72857;BME280;62742;52.136;4.500;2023-04-01T05:01:38;99538.84;;;8.96;100.00
72857;BME280;62742;52.136;4.500;2023-04-01T05:04:04;99537.31;;;8.89;100.00
72857;BME280;62742;52.136;4.500;2023-04-01T05:06:30;99538.13;;;8.91;100.00
72857;BME280;62742;52.136;4.500;2023-04-01T05:08:57;99548.56;;;8.92;100.00
72857;BME280;62742;52.136;4.500;2023-04-01T05:11:23;99544.16;;;8.93;100.00
72857;BME280;62742;52.136;4.500;2023-04-01T05:13:51;99552.09;;;8.90;100.00
72857;BME280;62742;52.136;4.500;2023-04-01T05:16:18;99553.03;;;8.89;100.00
72857;BME280;62742;52.136;4.500;2023-04-01T05:18:46;99562.41;;;8.96;100.00
72857;BME280;62742;52.136;4.500;2023-04-01T05:21:13;99565.31;;;8.87;100.00
72857;BME280;62742;52.136;4.500;2023-04-01T05:23:40;99555.81;;;8.83;100.00
72857;BME280;62742;52.136;4.500;2023-04-01T05:26:09;99568.78;;;8.87;100.00
72857;BME280;62742;52.136;4.500;2023-04-01T05:28:37;99574.63;;;8.97;100.00
72857;BME280;62742;52.136;4.500;2023-04-01T05:31:04;99581.44;;;9.03;100.00
72857;BME280;62742;52.136;4.500;2023-04-01T05:33:31;99574.13;;;8.84;100.00
72857;BME280;62742;52.136;4.500;2023-04-01T05:36:09;99580.78;;;8.65;100.00
72857;BME280;62742;52.136;4.500;2023-04-01T05:38:36;99593.66;;;8.72;100.00
72857;BME280;62742;52.136;4.500;2023-04-01T05:41:03;99585.69;;;8.77;100.00
72857;BME280;62742;52.136;4.500;2023-04-01T05:43:29;99596.91;;;8.80;100.00
72857;BME280;62742;52.136;4.500;2023-04-01T05:45:56;99602.00;;;8.87;100.00
72857;BME280;62742;52.136;4.500;2023-04-01T05:48:23;99598.53;;;8.85;100.00
72857;BME280;62742;52.136;4.500;2023-04-01T05:50:49;99602.84;;;8.87;100.00
72857;BME280;62742;52.136;4.500;2023-04-01T05:53:15;99608.03;;;8.89;100.00
72857;BME280;62742;52.136;4.500;2023-04-01T05:55:41;99620.34;;;8.87;100.00
72857;BME280;62742;52.136;4.500;2023-04-01T05:58:07;99628.34;;;8.80;100.00
72857;BME280;62742;52.136;4.500;2023-04-01T06:00:33;99629.50;;;8.70;100.00
72857;BME280;62742;52.136;4.500;2023-04-01T06:03:00;99631.34;;;8.67;100.00
72857;BME280;62742;52.136;4.500;2023-04-01T06:05:27;99635.56;;;8.72;100.00
72857;BME280;62742;52.136;4.500;2023-04-01T06:07:59;99639.09;;;8.71;100.00
72857;BME280;62742;52.136;4.500;2023-04-01T06:10:53;99649.53;;;8.73;100.00
72857;BME280;62742;52.136;4.500;2023-04-01T06:19:50;99647.19;;;8.62;100.00
72857;BME280;62742;52.136;4.500;2023-04-01T06:25:04;99666.66;;;8.52;100.00
72857;BME280;62742;52.136;4.500;2023-04-01T06:27:48;99669.78;;;8.66;100.00
72857;BME280;62742;52.136;4.500;2023-04-01T06:30:39;99671.41;;;8.70;100.00
72857;BME280;62742;52.136;4.500;2023-04-01T06:33:14;99673.69;;;8.83;100.00
72857;BME280;62742;52.136;4.500;2023-04-01T06:41:21;99682.47;;;8.82;100.00
72857;BME280;62742;52.136;4.500;2023-04-01T06:55:42;99708.56;;;8.85;100.00
72857;BME280;62742;52.136;4.500;2023-04-01T06:58:19;99713.63;;;8.91;100.00
72857;BME280;62742;52.136;4.500;2023-04-01T07:00:48;99708.25;;;8.97;100.00
72857;BME280;62742;52.136;4.500;2023-04-01T07:03:40;99717.06;;;8.93;100.00
72857;BME280;62742;52.136;4.500;2023-04-01T07:06:24;99728.66;;;8.84;100.00
72857;BME280;62742;52.136;4.500;2023-04-01T07:08:58;99720.34;;;9.01;100.00
72857;BME280;62742;52.136;4.500;2023-04-01T07:11:31;99727.47;;;8.96;100.00
72857;BME280;62742;52.136;4.500;2023-04-01T07:21:48;99750.31;;;8.91;100.00
72857;BME280;62742;52.136;4.500;2023-04-01T07:24:22;99751.94;;;8.95;100.00
72857;BME280;62742;52.136;4.500;2023-04-01T07:26:58;99754.41;;;9.01;100.00
72857;BME280;62742;52.136;4.500;2023-04-01T07:29:25;99758.94;;;8.94;100.00
72857;BME280;62742;52.136;4.500;2023-04-01T07:34:25;99762.00;;;9.10;100.00
72857;BME280;62742;52.136;4.500;2023-04-01T07:36:57;99764.38;;;9.20;100.00
72857;BME280;62742;52.136;4.500;2023-04-01T07:42:13;99779.47;;;9.11;100.00
72857;BME280;62742;52.136;4.500;2023-04-01T07:47:31;99781.19;;;9.12;100.00
72857;BME280;62742;52.136;4.500;2023-04-01T07:50:16;99778.13;;;8.95;100.00
72857;BME280;62742;52.136;4.500;2023-04-01T07:53:12;99788.53;;;8.98;100.00
72857;BME280;62742;52.136;4.500;2023-04-01T07:55:50;99786.84;;;8.97;100.00
72857;BME280;62742;52.136;4.500;2023-04-01T08:06:59;99799.66;;;9.08;100.00
72857;BME280;62742;52.136;4.500;2023-04-01T08:09:43;99810.84;;;9.14;100.00
72857;BME280;62742;52.136;4.500;2023-04-01T08:12:34;99815.97;;;9.19;100.00
72857;BME280;62742;52.136;4.500;2023-04-01T08:15:08;99815.47;;;9.03;100.00
72857;BME280;62742;52.136;4.500;2023-04-01T08:20:41;99818.06;;;9.05;100.00
72857;BME280;62742;52.136;4.500;2023-04-01T08:23:16;99826.63;;;9.11;100.00
72857;BME280;62742;52.136;4.500;2023-04-01T08:25:57;99831.81;;;9.14;100.00
72857;BME280;62742;52.136;4.500;2023-04-01T08:28:30;99838.91;;;9.09;100.00
72857;BME280;62742;52.136;4.500;2023-04-01T08:31:10;99841.31;;;9.17;100.00
72857;BME280;62742;52.136;4.500;2023-04-01T08:33:41;99840.19;;;9.27;100.00
72857;BME280;62742;52.136;4.500;2023-04-01T08:36:13;99852.63;;;9.21;100.00
72857;BME280;62742;52.136;4.500;2023-04-01T08:41:28;99851.72;;;9.20;100.00
72857;BME280;62742;52.136;4.500;2023-04-01T08:55:22;99872.69;;;9.20;100.00
72857;BME280;62742;52.136;4.500;2023-04-01T09:00:43;99870.03;;;9.22;100.00
72857;BME280;62742;52.136;4.500;2023-04-01T09:21:24;99900.47;;;9.62;100.00
72857;BME280;62742;52.136;4.500;2023-04-01T09:27:03;99898.97;;;9.84;98.70
72857;BME280;62742;52.136;4.500;2023-04-01T09:29:41;99907.06;;;9.44;99.54
72857;BME280;62742;52.136;4.500;2023-04-01T09:36:12;99912.50;;;9.36;99.99
72857;BME280;62742;52.136;4.500;2023-04-01T09:40:57;99923.97;;;9.32;100.00
72857;BME280;62742;52.136;4.500;2023-04-01T10:09:37;99954.56;;;9.66;99.86
72857;BME280;62742;52.136;4.500;2023-04-01T10:12:31;99952.81;;;9.65;100.00
72857;BME280;62742;52.136;4.500;2023-04-01T10:20:56;99967.56;;;9.70;100.00
72857;BME280;62742;52.136;4.500;2023-04-01T10:29:20;99972.38;;;9.87;98.54
72857;BME280;62742;52.136;4.500;2023-04-01T10:35:26;99982.53;;;9.67;99.01
72857;BME280;62742;52.136;4.500;2023-04-01T10:48:43;99975.09;;;9.83;99.14
72857;BME280;62742;52.136;4.500;2023-04-01T10:51:34;99985.94;;;9.70;99.37
72857;BME280;62742;52.136;4.500;2023-04-01T10:56:47;99985.81;;;10.08;98.14
72857;BME280;62742;52.136;4.500;2023-04-01T11:07:43;99993.13;;;10.26;99.00
72857;BME280;62742;52.136;4.500;2023-04-01T11:27:16;100019.06;;;10.40;99.09
72857;BME280;62742;52.136;4.500;2023-04-01T11:40:47;100037.19;;;10.50;98.10
72857;BME280;62742;52.136;4.500;2023-04-01T11:43:37;100040.50;;;10.23;97.45
72857;BME280;62742;52.136;4.500;2023-04-01T11:46:33;100034.88;;;10.39;96.42
72857;BME280;62742;52.136;4.500;2023-04-01T11:52:39;100046.94;;;10.44;97.13
72857;BME280;62742;52.136;4.500;2023-04-01T12:00:51;100044.16;;;10.80;96.58
72857;BME280;62742;52.136;4.500;2023-04-01T12:03:51;100059.28;;;11.03;96.18
72857;BME280;62742;52.136;4.500;2023-04-01T12:09:35;100063.69;;;11.01;94.43
72857;BME280;62742;52.136;4.500;2023-04-01T12:12:24;100066.72;;;11.17;94.95
72857;BME280;62742;52.136;4.500;2023-04-01T12:15:29;100072.94;;;11.15;93.64
72857;BME280;62742;52.136;4.500;2023-04-01T12:38:31;100098.59;;;11.07;93.51
72857;BME280;62742;52.136;4.500;2023-04-01T12:41:17;100098.19;;;10.91;93.32
72857;BME280;62742;52.136;4.500;2023-04-01T12:43:56;100107.31;;;11.09;94.43
72857;BME280;62742;52.136;4.500;2023-04-01T12:46:54;100105.28;;;11.17;94.09
72857;BME280;62742;52.136;4.500;2023-04-01T12:58:17;100125.16;;;11.55;93.31
72857;BME280;62742;52.136;4.500;2023-04-01T13:09:40;100139.00;;;11.62;90.38
72857;BME280;62742;52.136;4.500;2023-04-01T13:15:22;100140.84;;;11.87;88.59
72857;BME280;62742;52.136;4.500;2023-04-01T13:18:05;100143.19;;;11.97;88.74
72857;BME280;62742;52.136;4.500;2023-04-01T13:23:07;100139.50;;;11.73;90.29
72857;BME280;62742;52.136;4.500;2023-04-01T13:28:43;100151.22;;;11.93;89.08
72857;BME280;62742;52.136;4.500;2023-04-01T13:45:10;100178.59;;;12.14;86.18
72857;BME280;62742;52.136;4.500;2023-04-01T13:53:05;100177.47;;;12.21;85.36
72857;BME280;62742;52.136;4.500;2023-04-01T14:12:44;100200.03;;;11.73;88.65
72857;BME280;62742;52.136;4.500;2023-04-01T14:15:52;100206.78;;;11.54;88.09
72857;BME280;62742;52.136;4.500;2023-04-01T14:21:21;100213.00;;;11.51;90.12
72857;BME280;62742;52.136;4.500;2023-04-01T14:35:40;100236.38;;;10.66;95.14
72857;BME280;62742;52.136;4.500;2023-04-01T14:38:26;100243.38;;;10.68;96.75
72857;BME280;62742;52.136;4.500;2023-04-01T14:41:20;100249.81;;;10.89;96.77
72857;BME280;62742;52.136;4.500;2023-04-01T14:55:54;100264.00;;;10.83;96.45
72857;BME280;62742;52.136;4.500;2023-04-01T14:58:23;100267.56;;;10.80;95.37
72857;BME280;62742;52.136;4.500;2023-04-01T15:01:11;100275.72;;;10.70;96.26
72857;BME280;62742;52.136;4.500;2023-04-01T15:03:53;100275.78;;;10.66;96.38
72857;BME280;62742;52.136;4.500;2023-04-01T15:17:58;100310.25;;;10.90;96.34
72857;BME280;62742;52.136;4.500;2023-04-01T15:20:46;100310.03;;;10.98;97.26
72857;BME280;62742;52.136;4.500;2023-04-01T15:23:27;100313.44;;;11.01;95.89
72857;BME280;62742;52.136;4.500;2023-04-01T15:26:13;100322.16;;;11.03;95.56
72857;BME280;62742;52.136;4.500;2023-04-01T15:36:56;100343.06;;;11.08;95.07
72857;BME280;62742;52.136;4.500;2023-04-01T15:42:02;100358.03;;;11.06;94.79
72857;BME280;62742;52.136;4.500;2023-04-01T15:44:42;100355.53;;;11.00;94.86
72857;BME280;62742;52.136;4.500;2023-04-01T15:53:12;100370.94;;;10.79;96.17
72857;BME280;62742;52.136;4.500;2023-04-01T16:01:07;100380.06;;;11.02;93.24
72857;BME280;62742;52.136;4.500;2023-04-01T16:06:21;100389.41;;;10.78;95.47
72857;BME280;62742;52.136;4.500;2023-04-01T16:20:34;100425.41;;;10.34;96.32
72857;BME280;62742;52.136;4.500;2023-04-01T16:23:20;100426.63;;;10.58;95.19
72857;BME280;62742;52.136;4.500;2023-04-01T16:26:38;100440.28;;;10.33;97.17
72857;BME280;62742;52.136;4.500;2023-04-01T16:28:52;100443.56;;;10.44;95.64
72857;BME280;62742;52.136;4.500;2023-04-01T16:33:56;100449.09;;;10.30;96.64
72857;BME280;62742;52.136;4.500;2023-04-01T16:36:42;100458.91;;;10.21;95.68
72857;BME280;62742;52.136;4.500;2023-04-01T16:39:47;100460.47;;;10.29;96.23
72857;BME280;62742;52.136;4.500;2023-04-01T16:42:31;100471.81;;;10.33;94.87
72857;BME280;62742;52.136;4.500;2023-04-01T16:47:35;100477.84;;;10.37;93.98
72857;BME280;62742;52.136;4.500;2023-04-01T16:55:51;100498.50;;;10.10;95.05
72857;BME280;62742;52.136;4.500;2023-04-01T16:58:27;100504.09;;;9.91;95.90
72857;BME280;62742;52.136;4.500;2023-04-01T17:01:23;100497.69;;;10.08;95.19
72857;BME280;62742;52.136;4.500;2023-04-01T17:10:13;100532.72;;;10.04;95.23
72857;BME280;62742;52.136;4.500;2023-04-01T17:22:01;100548.81;;;9.85;94.95
72857;BME280;62742;52.136;4.500;2023-04-01T17:27:08;100573.31;;;9.86;93.80
72857;BME280;62742;52.136;4.500;2023-04-01T17:35:18;100593.78;;;9.64;94.37
72857;BME280;62742;52.136;4.500;2023-04-01T17:40:34;100604.19;;;9.68;94.21
72857;BME280;62742;52.136;4.500;2023-04-01T17:45:57;100629.53;;;9.71;93.94
72857;BME280;62742;52.136;4.500;2023-04-01T17:48:45;100623.69;;;9.52;95.51
72857;BME280;62742;52.136;4.500;2023-04-01T17:54:05;100636.78;;;9.55;94.59
72857;BME280;62742;52.136;4.500;2023-04-01T17:57:00;100640.13;;;9.63;94.22
72857;BME280;62742;52.136;4.500;2023-04-01T18:08:17;100666.63;;;9.46;93.81
72857;BME280;62742;52.136;4.500;2023-04-01T18:13:38;100679.59;;;9.57;94.27
72857;BME280;62742;52.136;4.500;2023-04-01T18:16:26;100684.91;;;9.49;93.63
72857;BME280;62742;52.136;4.500;2023-04-01T18:24:56;100702.38;;;9.52;93.31
72857;BME280;62742;52.136;4.500;2023-04-01T18:30:42;100732.22;;;9.45;93.27
72857;BME280;62742;52.136;4.500;2023-04-01T18:33:29;100728.06;;;9.25;92.48
72857;BME280;62742;52.136;4.500;2023-04-01T18:38:49;100730.63;;;9.31;93.10
72857;BME280;62742;52.136;4.500;2023-04-01T18:41:26;100738.75;;;9.08;93.65
72857;BME280;62742;52.136;4.500;2023-04-01T18:52:41;100782.34;;;9.15;93.21
72857;BME280;62742;52.136;4.500;2023-04-01T18:55:22;100781.59;;;9.07;93.06
72857;BME280;62742;52.136;4.500;2023-04-01T18:58:00;100786.88;;;8.99;93.15
72857;BME280;62742;52.136;4.500;2023-04-01T19:00:34;100794.56;;;9.20;91.79
72857;BME280;62742;52.136;4.500;2023-04-01T19:05:44;100805.19;;;9.04;92.49
72857;BME280;62742;52.136;4.500;2023-04-01T19:08:27;100815.72;;;9.01;92.63
72857;BME280;62742;52.136;4.500;2023-04-01T19:22:11;100851.56;;;8.97;92.68
72857;BME280;62742;52.136;4.500;2023-04-01T19:24:50;100858.56;;;8.95;92.76
72857;BME280;62742;52.136;4.500;2023-04-01T19:35:47;100880.56;;;8.74;93.77
72857;BME280;62742;52.136;4.500;2023-04-01T19:47:01;100899.06;;;8.54;93.76
72857;BME280;62742;52.136;4.500;2023-04-01T19:52:39;100906.94;;;8.51;93.93
72857;BME280;62742;52.136;4.500;2023-04-01T20:01:08;100922.56;;;8.62;93.32
72857;BME280;62742;52.136;4.500;2023-04-01T20:03:46;100927.81;;;8.60;92.36
72857;BME280;62742;52.136;4.500;2023-04-01T20:14:26;100957.56;;;8.41;92.50
72857;BME280;62742;52.136;4.500;2023-04-01T20:25:14;100968.03;;;8.41;91.81
72857;BME280;62742;52.136;4.500;2023-04-01T20:27:50;100982.03;;;8.35;91.41
72857;BME280;62742;52.136;4.500;2023-04-01T20:39:36;101008.28;;;8.11;93.49
72857;BME280;62742;52.136;4.500;2023-04-01T20:53:20;101037.03;;;8.23;91.54
72857;BME280;62742;52.136;4.500;2023-04-01T20:58:50;101047.50;;;8.34;91.02
72857;BME280;62742;52.136;4.500;2023-04-01T21:19:36;101078.97;;;7.95;92.42
72857;BME280;62742;52.136;4.500;2023-04-01T21:44:21;101141.78;;;7.88;90.42
72857;BME280;62742;52.136;4.500;2023-04-01T21:50:35;101157.47;;;7.69;89.58
72857;BME280;62742;52.136;4.500;2023-04-01T21:59:24;101173.13;;;7.60;91.63
72857;BME280;62742;52.136;4.500;2023-04-01T22:11:01;101200.06;;;7.36;91.52
72857;BME280;62742;52.136;4.500;2023-04-01T22:16:37;101207.97;;;7.49;90.56
72857;BME280;62742;52.136;4.500;2023-04-01T22:22:08;101214.06;;;7.47;90.16
72857;BME280;62742;52.136;4.500;2023-04-01T22:27:38;101228.81;;;7.28;90.34
72857;BME280;62742;52.136;4.500;2023-04-01T22:38:16;101237.53;;;7.38;90.15
72857;BME280;62742;52.136;4.500;2023-04-01T22:44:31;101259.31;;;7.34;91.14
72857;BME280;62742;52.136;4.500;2023-04-01T22:52:46;101268.00;;;7.25;91.95
72857;BME280;62742;52.136;4.500;2023-04-01T22:55:21;101271.56;;;7.41;91.77
72857;BME280;62742;52.136;4.500;2023-04-01T23:00:26;101285.44;;;7.30;90.89
72857;BME280;62742;52.136;4.500;2023-04-01T23:05:33;101288.13;;;7.38;91.11
72857;BME280;62742;52.136;4.500;2023-04-01T23:10:54;101301.25;;;7.55;90.38
72857;BME280;62742;52.136;4.500;2023-04-01T23:13:26;101307.34;;;7.46;90.74
72857;BME280;62742;52.136;4.500;2023-04-01T23:15:58;101314.25;;;7.38;90.21
72857;BME280;62742;52.136;4.500;2023-04-01T23:18:30;101315.88;;;7.18;91.00
72857;BME280;62742;52.136;4.500;2023-04-01T23:29:30;101327.25;;;7.24;90.95
72857;BME280;62742;52.136;4.500;2023-04-01T23:32:05;101335.94;;;7.22;90.47
72857;BME280;62742;52.136;4.500;2023-04-01T23:34:45;101340.28;;;7.20;90.37
72857;BME280;62742;52.136;4.500;2023-04-01T23:37:14;101342.91;;;7.21;91.26
72857;BME280;62742;52.136;4.500;2023-04-01T23:39:53;101348.16;;;7.27;90.19
72857;BME280;62742;52.136;4.500;2023-04-01T23:42:23;101356.84;;;7.22;89.54
72857;BME280;62742;52.136;4.500;2023-04-01T23:45:13;101348.84;;;7.00;90.51
72857;BME280;62742;52.136;4.500;2023-04-01T23:47:46;101353.22;;;7.03;90.93
72857;BME280;62742;52.136;4.500;2023-04-01T23:50:16;101358.53;;;7.15;91.29
72857;BME280;62742;52.136;4.500;2023-04-01T23:52:46;101362.84;;;7.04;90.46
72857;BME280;62742;52.136;4.500;2023-04-01T23:55:22;101365.38;;;6.98;91.00
